sensor_id;sensor_type;location;lat;lon;timestamp;pressure;altitude;pressure_sealevel;temperature;humidity
70046;BME280;57385;41.832;23.494;2022-12-10T00:01:21;90559.13;;;9.43;83.47
70046;BME280;57385;41.832;23.494;2022-12-10T00:02:42;90556.34;;;9.45;84.13
70046;BME280;57385;41.832;23.494;2022-12-10T00:04:04;90557.91;;;9.46;83.50
70046;BME280;57385;41.832;23.494;2022-12-10T00:05:25;90555.69;;;9.49;83.88
70046;BME280;57385;41.832;23.494;2022-12-10T00:06:46;90553.13;;;9.49;83.96
70046;BME280;57385;41.832;23.494;2022-12-10T00:08:08;90556.44;;;9.50;83.47
70046;BME280;57385;41.832;23.494;2022-12-10T00:09:29;90559.78;;;9.50;83.76
70046;BME280;57385;41.832;23.494;2022-12-10T00:10:50;90560.78;;;9.49;84.28
70046;BME280;57385;41.832;23.494;2022-12-10T00:12:11;90552.88;;;9.51;83.87
70046;BME280;57385;41.832;23.494;2022-12-10T00:13:33;90553.97;;;9.55;84.32
70046;BME280;57385;41.832;23.494;2022-12-10T00:14:54;90550.66;;;9.55;84.26
70046;BME280;57385;41.832;23.494;2022-12-10T00:16:17;90560.41;;;9.58;83.66
70046;BME280;57385;41.832;23.494;2022-12-10T00:17:38;90557.88;;;9.58;83.73
70046;BME280;57385;41.832;23.494;2022-12-10T00:19:00;90560.66;;;9.56;83.95
70046;BME280;57385;41.832;23.494;2022-12-10T00:20:21;90558.88;;;9.57;83.94
70046;BME280;57385;41.832;23.494;2022-12-10T00:21:43;90558.09;;;9.56;83.89
70046;BME280;57385;41.832;23.494;2022-12-10T00:23:05;90560.88;;;9.55;83.75
70046;BME280;57385;41.832;23.494;2022-12-10T00:24:27;90550.34;;;9.51;83.72
70046;BME280;57385;41.832;23.494;2022-12-10T00:25:48;90565.22;;;9.54;83.84
70046;BME280;57385;41.832;23.494;2022-12-10T00:27:09;90556.00;;;9.53;83.96
70046;BME280;57385;41.832;23.494;2022-12-10T00:28:31;90558.09;;;9.56;83.83
70046;BME280;57385;41.832;23.494;2022-12-10T00:29:53;90555.53;;;9.56;83.91
70046;BME280;57385;41.832;23.494;2022-12-10T00:31:17;90557.09;;;9.57;83.41
70046;BME280;57385;41.832;23.494;2022-12-10T00:32:39;90558.09;;;9.56;83.76
70046;BME280;57385;41.832;23.494;2022-12-10T00:34:03;90558.09;;;9.56;83.57
70046;BME280;57385;41.832;23.494;2022-12-10T00:35:25;90560.88;;;9.55;83.75
70046;BME280;57385;41.832;23.494;2022-12-10T00:36:48;90558.31;;;9.55;83.45
70046;BME280;57385;41.832;23.494;2022-12-10T00:38:10;90565.78;;;9.56;83.42
70046;BME280;57385;41.832;23.494;2022-12-10T00:39:31;90573.69;;;9.55;83.66
70046;BME280;57385;41.832;23.494;2022-12-10T00:40:52;90570.34;;;9.54;84.13
70046;BME280;57385;41.832;23.494;2022-12-10T00:42:13;90571.13;;;9.55;84.44
70046;BME280;57385;41.832;23.494;2022-12-10T00:43:35;90562.66;;;9.54;84.25
70046;BME280;57385;41.832;23.494;2022-12-10T00:44:57;90550.75;;;9.60;84.45
70046;BME280;57385;41.832;23.494;2022-12-10T00:46:18;90548.19;;;9.60;84.43
70046;BME280;57385;41.832;23.494;2022-12-10T00:47:40;90553.31;;;9.60;84.12
70046;BME280;57385;41.832;23.494;2022-12-10T00:49:01;90548.63;;;9.57;84.34
70046;BME280;57385;41.832;23.494;2022-12-10T00:50:22;90553.75;;;9.57;84.84
70046;BME280;57385;41.832;23.494;2022-12-10T00:51:43;90548.41;;;9.58;84.42
70046;BME280;57385;41.832;23.494;2022-12-10T00:53:04;90549.75;;;9.61;84.28
70046;BME280;57385;41.832;23.494;2022-12-10T00:54:26;90548.97;;;9.60;84.70
70046;BME280;57385;41.832;23.494;2022-12-10T00:55:47;90537.16;;;9.59;84.73
70046;BME280;57385;41.832;23.494;2022-12-10T00:57:08;90528.38;;;9.55;84.76
70046;BME280;57385;41.832;23.494;2022-12-10T00:58:31;90532.84;;;9.60;84.69
70046;BME280;57385;41.832;23.494;2022-12-10T00:59:52;90531.81;;;9.61;84.84
70046;BME280;57385;41.832;23.494;2022-12-10T01:01:15;90536.53;;;9.52;85.16
70046;BME280;57385;41.832;23.494;2022-12-10T01:02:37;90544.13;;;9.47;85.49
70046;BME280;57385;41.832;23.494;2022-12-10T01:04:01;90529.78;;;9.46;85.67
70046;BME280;57385;41.832;23.494;2022-12-10T01:05:24;90533.13;;;9.35;85.61
70046;BME280;57385;41.832;23.494;2022-12-10T01:06:51;90531.91;;;9.37;86.01
70046;BME280;57385;41.832;23.494;2022-12-10T01:08:13;90539.03;;;9.35;86.12
70046;BME280;57385;41.832;23.494;2022-12-10T01:09:34;90540.03;;;9.34;85.77
70046;BME280;57385;41.832;23.494;2022-12-10T01:10:55;90540.94;;;9.28;86.43
70046;BME280;57385;41.832;23.494;2022-12-10T01:12:16;90543.81;;;9.32;86.16
70046;BME280;57385;41.832;23.494;2022-12-10T01:13:38;90542.63;;;9.23;86.73
70046;BME280;57385;41.832;23.494;2022-12-10T01:14:59;90540.09;;;9.11;87.29
70046;BME280;57385;41.832;23.494;2022-12-10T01:16:21;90525.59;;;9.16;87.39
70046;BME280;57385;41.832;23.494;2022-12-10T01:17:44;90530.84;;;9.10;87.66
70046;BME280;57385;41.832;23.494;2022-12-10T01:19:07;90530.53;;;9.06;87.99
70046;BME280;57385;41.832;23.494;2022-12-10T01:20:28;90530.19;;;9.03;88.29
70046;BME280;57385;41.832;23.494;2022-12-10T01:21:53;90537.78;;;8.98;88.80
70046;BME280;57385;41.832;23.494;2022-12-10T01:23:15;90538.09;;;9.01;88.30
70046;BME280;57385;41.832;23.494;2022-12-10T01:24:36;90535.53;;;9.01;88.70
70046;BME280;57385;41.832;23.494;2022-12-10T01:26:01;90534.31;;;9.04;88.23
70046;BME280;57385;41.832;23.494;2022-12-10T01:27:22;90534.44;;;9.09;88.41
70046;BME280;57385;41.832;23.494;2022-12-10T01:28:43;90538.31;;;9.11;88.46
70046;BME280;57385;41.832;23.494;2022-12-10T01:30:07;90544.75;;;9.14;88.36
70046;BME280;57385;41.832;23.494;2022-12-10T01:31:33;90534.50;;;9.14;88.05
70046;BME280;57385;41.832;23.494;2022-12-10T01:32:54;90530.50;;;9.18;87.82
70046;BME280;57385;41.832;23.494;2022-12-10T01:34:15;90530.59;;;9.23;88.18
70046;BME280;57385;41.832;23.494;2022-12-10T01:35:37;90525.81;;;9.27;87.74
70046;BME280;57385;41.832;23.494;2022-12-10T01:36:58;90526.03;;;9.25;87.68
70046;BME280;57385;41.832;23.494;2022-12-10T01:38:19;90512.03;;;9.16;87.90
70046;BME280;57385;41.832;23.494;2022-12-10T01:39:40;90520.59;;;9.22;87.18
70046;BME280;57385;41.832;23.494;2022-12-10T01:41:03;90511.47;;;9.26;87.20
70046;BME280;57385;41.832;23.494;2022-12-10T01:42:25;90514.56;;;9.28;86.54
70046;BME280;57385;41.832;23.494;2022-12-10T01:45:15;90513.91;;;9.32;86.40
70046;BME280;57385;41.832;23.494;2022-12-10T01:46:42;90503.97;;;9.36;86.39
70046;BME280;57385;41.832;23.494;2022-12-10T01:48:03;90502.97;;;9.37;86.02
70046;BME280;57385;41.832;23.494;2022-12-10T01:49:36;90503.28;;;9.40;86.21
70046;BME280;57385;41.832;23.494;2022-12-10T01:50:58;90496.16;;;9.42;86.26
70046;BME280;57385;41.832;23.494;2022-12-10T01:52:19;90491.81;;;9.43;86.20
70046;BME280;57385;41.832;23.494;2022-12-10T01:53:42;90493.59;;;9.42;85.85
70046;BME280;57385;41.832;23.494;2022-12-10T01:55:34;90489.25;;;9.43;86.07
70046;BME280;57385;41.832;23.494;2022-12-10T01:56:54;90489.25;;;9.43;86.30
70046;BME280;57385;41.832;23.494;2022-12-10T01:58:18;90492.81;;;9.42;85.94
70046;BME280;57385;41.832;23.494;2022-12-10T01:59:40;90499.50;;;9.43;85.84
70046;BME280;57385;41.832;23.494;2022-12-10T02:04:50;90504.38;;;9.44;86.01
70046;BME280;57385;41.832;23.494;2022-12-10T02:06:37;90512.53;;;9.41;86.17
70046;BME280;57385;41.832;23.494;2022-12-10T02:08:19;90507.41;;;9.41;86.25
70046;BME280;57385;41.832;23.494;2022-12-10T02:10:38;90502.81;;;9.43;86.53
70046;BME280;57385;41.832;23.494;2022-12-10T02:13:06;90491.81;;;9.43;86.35
70046;BME280;57385;41.832;23.494;2022-12-10T02:14:35;90492.81;;;9.42;86.62
70046;BME280;57385;41.832;23.494;2022-12-10T02:16:08;90494.13;;;9.44;86.25
70046;BME280;57385;41.832;23.494;2022-12-10T02:17:38;90497.16;;;9.41;86.32
70046;BME280;57385;41.832;23.494;2022-12-10T02:20:43;90494.59;;;9.41;86.51
70046;BME280;57385;41.832;23.494;2022-12-10T02:22:07;90497.94;;;9.42;86.54
70046;BME280;57385;41.832;23.494;2022-12-10T02:23:36;90495.38;;;9.42;86.28
70046;BME280;57385;41.832;23.494;2022-12-10T02:24:59;90493.06;;;9.40;86.69
70046;BME280;57385;41.832;23.494;2022-12-10T02:27:01;90490.72;;;9.39;86.78
70046;BME280;57385;41.832;23.494;2022-12-10T02:30:00;90489.94;;;9.38;86.76
70046;BME280;57385;41.832;23.494;2022-12-10T02:31:29;90485.38;;;9.40;87.21
70046;BME280;57385;41.832;23.494;2022-12-10T02:32:53;90490.25;;;9.42;86.82
70046;BME280;57385;41.832;23.494;2022-12-10T02:34:16;90488.03;;;9.45;86.86
70046;BME280;57385;41.832;23.494;2022-12-10T02:35:40;90483.13;;;9.44;86.95
70046;BME280;57385;41.832;23.494;2022-12-10T02:37:06;90480.34;;;9.45;86.92
70046;BME280;57385;41.832;23.494;2022-12-10T02:38:31;90468.00;;;9.42;86.64
70046;BME280;57385;41.832;23.494;2022-12-10T02:39:56;90470.34;;;9.44;86.79
70046;BME280;57385;41.832;23.494;2022-12-10T02:41:28;90481.81;;;9.41;86.71
70046;BME280;57385;41.832;23.494;2022-12-10T02:42:52;90489.03;;;9.44;86.31
70046;BME280;57385;41.832;23.494;2022-12-10T02:44:16;90481.56;;;9.43;86.78
70046;BME280;57385;41.832;23.494;2022-12-10T02:45:41;90482.34;;;9.43;86.37
70046;BME280;57385;41.832;23.494;2022-12-10T02:47:05;90480.03;;;9.42;86.54
70046;BME280;57385;41.832;23.494;2022-12-10T02:48:31;90472.59;;;9.40;86.80
70046;BME280;57385;41.832;23.494;2022-12-10T02:49:56;90473.81;;;9.38;86.74
70046;BME280;57385;41.832;23.494;2022-12-10T02:51:20;90473.03;;;9.37;86.71
70046;BME280;57385;41.832;23.494;2022-12-10T02:52:42;90468.72;;;9.38;86.92
70046;BME280;57385;41.832;23.494;2022-12-10T02:54:31;90475.16;;;9.40;86.33
70046;BME280;57385;41.832;23.494;2022-12-10T02:59:13;90465.13;;;9.39;86.41
70046;BME280;57385;41.832;23.494;2022-12-10T03:00:51;90460.34;;;9.42;86.08
70046;BME280;57385;41.832;23.494;2022-12-10T03:06:09;90460.66;;;9.46;85.59
70046;BME280;57385;41.832;23.494;2022-12-10T03:07:40;90444.50;;;9.45;85.62
70046;BME280;57385;41.832;23.494;2022-12-10T03:09:09;90459.44;;;9.48;85.50
70046;BME280;57385;41.832;23.494;2022-12-10T03:10:41;90448.41;;;9.48;85.78
70046;BME280;57385;41.832;23.494;2022-12-10T03:12:25;90443.31;;;9.48;85.95
70046;BME280;57385;41.832;23.494;2022-12-10T03:14:00;90442.19;;;9.44;85.47
70046;BME280;57385;41.832;23.494;2022-12-10T03:15:24;90453.00;;;9.46;85.78
70046;BME280;57385;41.832;23.494;2022-12-10T03:16:53;90459.31;;;9.43;86.31
70046;BME280;57385;41.832;23.494;2022-12-10T03:18:17;90461.09;;;9.43;86.12
70046;BME280;57385;41.832;23.494;2022-12-10T03:19:45;90468.78;;;9.43;86.22
70046;BME280;57385;41.832;23.494;2022-12-10T03:21:09;90467.53;;;9.45;86.11
70046;BME280;57385;41.832;23.494;2022-12-10T03:22:31;90456.53;;;9.45;86.25
70046;BME280;57385;41.832;23.494;2022-12-10T03:23:53;90461.44;;;9.46;85.95
70046;BME280;57385;41.832;23.494;2022-12-10T03:25:18;90457.88;;;9.47;85.91
70046;BME280;57385;41.832;23.494;2022-12-10T03:26:40;90450.09;;;9.42;86.21
70046;BME280;57385;41.832;23.494;2022-12-10T03:28:03;90454.97;;;9.44;85.66
70046;BME280;57385;41.832;23.494;2022-12-10T03:29:28;90459.31;;;9.43;86.02
70046;BME280;57385;41.832;23.494;2022-12-10T03:30:54;90459.66;;;9.47;86.11
70046;BME280;57385;41.832;23.494;2022-12-10T03:32:16;90449.19;;;9.48;85.82
70046;BME280;57385;41.832;23.494;2022-12-10T03:33:40;90453.31;;;9.49;85.76
70046;BME280;57385;41.832;23.494;2022-12-10T03:35:02;90450.75;;;9.49;85.92
70046;BME280;57385;41.832;23.494;2022-12-10T03:36:25;90447.88;;;9.46;85.78
70046;BME280;57385;41.832;23.494;2022-12-10T03:37:47;90452.53;;;9.49;85.33
70046;BME280;57385;41.832;23.494;2022-12-10T03:39:11;90445.63;;;9.49;85.56
70046;BME280;57385;41.832;23.494;2022-12-10T03:40:32;90452.28;;;9.50;85.56
70046;BME280;57385;41.832;23.494;2022-12-10T03:41:54;90449.72;;;9.50;85.90
70046;BME280;57385;41.832;23.494;2022-12-10T03:43:15;90442.59;;;9.53;85.47
70046;BME280;57385;41.832;23.494;2022-12-10T03:44:37;90439.25;;;9.52;85.39
70046;BME280;57385;41.832;23.494;2022-12-10T03:45:59;90439.25;;;9.52;85.20
70046;BME280;57385;41.832;23.494;2022-12-10T03:47:20;90439.97;;;9.47;85.53
70046;BME280;57385;41.832;23.494;2022-12-10T03:48:41;90443.66;;;9.40;86.32
70046;BME280;57385;41.832;23.494;2022-12-10T03:50:03;90442.03;;;9.34;86.87
70046;BME280;57385;41.832;23.494;2022-12-10T03:51:24;90444.59;;;9.34;86.84
70046;BME280;57385;41.832;23.494;2022-12-10T03:52:45;90442.34;;;9.37;86.92
70046;BME280;57385;41.832;23.494;2022-12-10T03:54:07;90444.81;;;9.32;87.34
70046;BME280;57385;41.832;23.494;2022-12-10T03:55:28;90442.34;;;9.37;87.10
70046;BME280;57385;41.832;23.494;2022-12-10T03:56:49;90442.34;;;9.37;86.74
70046;BME280;57385;41.832;23.494;2022-12-10T03:58:10;90439.78;;;9.37;87.23
70046;BME280;57385;41.832;23.494;2022-12-10T03:59:39;90446.75;;;9.42;86.91
70046;BME280;57385;41.832;23.494;2022-12-10T04:01:00;90436.75;;;9.40;86.55
70046;BME280;57385;41.832;23.494;2022-12-10T04:02:21;90433.19;;;9.41;86.80
70046;BME280;57385;41.832;23.494;2022-12-10T04:03:42;90447.53;;;9.42;87.33
70046;BME280;57385;41.832;23.494;2022-12-10T04:05:04;90449.09;;;9.43;87.06
70046;BME280;57385;41.832;23.494;2022-12-10T04:06:27;90442.09;;;9.39;87.21
70046;BME280;57385;41.832;23.494;2022-12-10T04:07:48;90444.66;;;9.39;87.36
70046;BME280;57385;41.832;23.494;2022-12-10T04:09:11;90454.44;;;9.42;87.04
70046;BME280;57385;41.832;23.494;2022-12-10T04:10:36;90453.97;;;9.45;86.90
70046;BME280;57385;41.832;23.494;2022-12-10T04:11:58;90453.00;;;9.46;86.82
70046;BME280;57385;41.832;23.494;2022-12-10T04:13:19;90443.66;;;9.40;86.78
70046;BME280;57385;41.832;23.494;2022-12-10T04:14:59;90439.84;;;9.42;86.60
70046;BME280;57385;41.832;23.494;2022-12-10T04:16:39;90448.53;;;9.41;87.18
70046;BME280;57385;41.832;23.494;2022-12-10T04:18:00;90462.03;;;9.37;87.25
70046;BME280;57385;41.832;23.494;2022-12-10T04:19:22;90457.69;;;9.37;86.76
70046;BME280;57385;41.832;23.494;2022-12-10T04:20:44;90456.13;;;9.36;87.09
70046;BME280;57385;41.832;23.494;2022-12-10T04:22:23;90443.59;;;9.35;86.50
70046;BME280;57385;41.832;23.494;2022-12-10T04:24:03;90449.47;;;9.35;86.83
70046;BME280;57385;41.832;23.494;2022-12-10T04:25:42;90451.03;;;9.36;86.63
70046;BME280;57385;41.832;23.494;2022-12-10T04:27:23;90452.88;;;9.41;86.61
70046;BME280;57385;41.832;23.494;2022-12-10T04:28:45;90447.16;;;9.34;87.03
70046;BME280;57385;41.832;23.494;2022-12-10T04:30:08;90438.69;;;9.33;87.14
70046;BME280;57385;41.832;23.494;2022-12-10T04:31:30;90437.59;;;9.29;87.21
70046;BME280;57385;41.832;23.494;2022-12-10T04:32:51;90450.25;;;9.36;86.87
70046;BME280;57385;41.832;23.494;2022-12-10T04:34:13;90456.44;;;9.40;87.30
70046;BME280;57385;41.832;23.494;2022-12-10T04:35:34;90451.56;;;9.38;87.20
70046;BME280;57385;41.832;23.494;2022-12-10T04:36:57;90461.34;;;9.41;86.82
70046;BME280;57385;41.832;23.494;2022-12-10T04:38:18;90457.22;;;9.40;87.44
70046;BME280;57385;41.832;23.494;2022-12-10T04:39:40;90448.31;;;9.43;86.77
70046;BME280;57385;41.832;23.494;2022-12-10T04:41:01;90443.19;;;9.43;86.66
70046;BME280;57385;41.832;23.494;2022-12-10T04:42:22;90436.22;;;9.38;86.78
70046;BME280;57385;41.832;23.494;2022-12-10T04:43:43;90433.97;;;9.42;86.53
70046;BME280;57385;41.832;23.494;2022-12-10T04:45:05;90430.09;;;9.39;86.48
70046;BME280;57385;41.832;23.494;2022-12-10T04:46:27;90429.63;;;9.42;86.79
70046;BME280;57385;41.832;23.494;2022-12-10T04:47:48;90433.72;;;9.43;86.80
70046;BME280;57385;41.832;23.494;2022-12-10T04:49:10;90433.97;;;9.42;86.74
70046;BME280;57385;41.832;23.494;2022-12-10T04:50:31;90425.13;;;9.33;86.58
70046;BME280;57385;41.832;23.494;2022-12-10T04:51:52;90425.44;;;9.36;86.46
70046;BME280;57385;41.832;23.494;2022-12-10T04:53:13;90423.41;;;9.38;86.62
70046;BME280;57385;41.832;23.494;2022-12-10T04:54:35;90412.41;;;9.38;86.98
70046;BME280;57385;41.832;23.494;2022-12-10T04:55:59;90411.63;;;9.37;86.50
70046;BME280;57385;41.832;23.494;2022-12-10T04:57:22;90406.53;;;9.37;86.39
70046;BME280;57385;41.832;23.494;2022-12-10T04:58:43;90409.06;;;9.37;86.62
70046;BME280;57385;41.832;23.494;2022-12-10T05:00:04;90409.06;;;9.37;86.46
70046;BME280;57385;41.832;23.494;2022-12-10T05:01:27;90409.94;;;9.43;86.48
70046;BME280;57385;41.832;23.494;2022-12-10T05:02:48;90411.09;;;9.35;86.14
70046;BME280;57385;41.832;23.494;2022-12-10T05:04:12;90413.66;;;9.35;86.38
70046;BME280;57385;41.832;23.494;2022-12-10T05:05:34;90414.44;;;9.36;86.73
70046;BME280;57385;41.832;23.494;2022-12-10T05:06:55;90429.53;;;9.37;86.39
70046;BME280;57385;41.832;23.494;2022-12-10T05:08:18;90427.00;;;9.37;86.16
70046;BME280;57385;41.832;23.494;2022-12-10T05:09:40;90424.91;;;9.34;86.69
70046;BME280;57385;41.832;23.494;2022-12-10T05:11:02;90425.44;;;9.36;86.60
70046;BME280;57385;41.832;23.494;2022-12-10T05:12:25;90421.31;;;9.35;86.85
70046;BME280;57385;41.832;23.494;2022-12-10T05:13:46;90425.56;;;9.30;87.33
70046;BME280;57385;41.832;23.494;2022-12-10T05:15:08;90424.25;;;9.27;87.78
70046;BME280;57385;41.832;23.494;2022-12-10T05:16:31;90409.31;;;9.36;87.50
70046;BME280;57385;41.832;23.494;2022-12-10T05:17:53;90411.31;;;9.34;87.51
70046;BME280;57385;41.832;23.494;2022-12-10T05:19:14;90414.56;;;9.29;87.31
70046;BME280;57385;41.832;23.494;2022-12-10T05:20:35;90414.56;;;9.29;87.61
70046;BME280;57385;41.832;23.494;2022-12-10T05:21:56;90409.97;;;9.31;87.12
70046;BME280;57385;41.832;23.494;2022-12-10T05:23:37;90411.44;;;9.27;87.51
70046;BME280;57385;41.832;23.494;2022-12-10T05:24:58;90409.44;;;9.29;86.83
70046;BME280;57385;41.832;23.494;2022-12-10T05:26:22;90405.09;;;9.30;87.10
70046;BME280;57385;41.832;23.494;2022-12-10T05:27:44;90406.09;;;9.29;87.03
70046;BME280;57385;41.832;23.494;2022-12-10T05:29:05;90407.66;;;9.30;87.02
70046;BME280;57385;41.832;23.494;2022-12-10T05:30:27;90411.22;;;9.29;87.30
70046;BME280;57385;41.832;23.494;2022-12-10T05:31:48;90416.34;;;9.29;87.34
70046;BME280;57385;41.832;23.494;2022-12-10T05:33:10;90428.13;;;9.30;87.56
70046;BME280;57385;41.832;23.494;2022-12-10T05:34:31;90413.09;;;9.33;87.62
70046;BME280;57385;41.832;23.494;2022-12-10T05:36:00;90400.75;;;9.30;87.13
70046;BME280;57385;41.832;23.494;2022-12-10T05:37:22;90409.00;;;9.32;87.26
70046;BME280;57385;41.832;23.494;2022-12-10T05:38:43;90419.00;;;9.34;86.90
70046;BME280;57385;41.832;23.494;2022-12-10T05:40:05;90412.88;;;9.35;87.16
70046;BME280;57385;41.832;23.494;2022-12-10T05:41:29;90413.66;;;9.35;87.03
70046;BME280;57385;41.832;23.494;2022-12-10T05:42:50;90407.28;;;9.38;86.80
70046;BME280;57385;41.832;23.494;2022-12-10T05:44:12;90405.75;;;9.37;86.76
70046;BME280;57385;41.832;23.494;2022-12-10T05:45:33;90405.97;;;9.35;86.76
70046;BME280;57385;41.832;23.494;2022-12-10T05:46:54;90415.66;;;9.33;86.73
70046;BME280;57385;41.832;23.494;2022-12-10T05:48:15;90436.34;;;9.32;86.78
70046;BME280;57385;41.832;23.494;2022-12-10T05:49:37;90446.38;;;9.33;86.75
70046;BME280;57385;41.832;23.494;2022-12-10T05:51:02;90444.25;;;9.30;87.18
70046;BME280;57385;41.832;23.494;2022-12-10T05:52:23;90445.25;;;9.29;86.97
70046;BME280;57385;41.832;23.494;2022-12-10T05:53:44;90442.47;;;9.31;86.92
70046;BME280;57385;41.832;23.494;2022-12-10T05:55:06;90457.63;;;9.32;87.15
70046;BME280;57385;41.832;23.494;2022-12-10T05:56:27;90453.47;;;9.31;87.17
70046;BME280;57385;41.832;23.494;2022-12-10T05:57:48;90458.06;;;9.29;87.10
70046;BME280;57385;41.832;23.494;2022-12-10T05:59:09;90454.41;;;9.25;87.29
70046;BME280;57385;41.832;23.494;2022-12-10T06:00:39;90466.41;;;9.25;87.70
70046;BME280;57385;41.832;23.494;2022-12-10T06:02:00;90464.31;;;9.22;87.45
70046;BME280;57385;41.832;23.494;2022-12-10T06:03:23;90465.09;;;9.22;87.78
70046;BME280;57385;41.832;23.494;2022-12-10T06:04:45;90463.88;;;9.25;87.56
70046;BME280;57385;41.832;23.494;2022-12-10T06:06:06;90462.06;;;9.25;87.46
70046;BME280;57385;41.832;23.494;2022-12-10T06:07:29;90459.53;;;9.25;87.59
70046;BME280;57385;41.832;23.494;2022-12-10T06:08:51;90460.75;;;9.23;87.38
70046;BME280;57385;41.832;23.494;2022-12-10T06:10:12;90458.88;;;9.18;87.30
70046;BME280;57385;41.832;23.494;2022-12-10T06:11:33;90457.88;;;9.19;87.39
70046;BME280;57385;41.832;23.494;2022-12-10T06:12:54;90445.09;;;9.19;87.27
70046;BME280;57385;41.832;23.494;2022-12-10T06:14:16;90446.19;;;9.23;87.71
70046;BME280;57385;41.832;23.494;2022-12-10T06:15:41;90450.84;;;9.26;87.16
70046;BME280;57385;41.832;23.494;2022-12-10T06:17:02;90439.38;;;9.29;87.31
70046;BME280;57385;41.832;23.494;2022-12-10T06:18:23;90446.50;;;9.27;87.47
70046;BME280;57385;41.832;23.494;2022-12-10T06:19:45;90440.53;;;9.21;88.13
70046;BME280;57385;41.832;23.494;2022-12-10T06:21:08;90449.06;;;9.27;87.95
70046;BME280;57385;41.832;23.494;2022-12-10T06:22:30;90440.13;;;9.29;87.76
70046;BME280;57385;41.832;23.494;2022-12-10T06:23:51;90442.25;;;9.32;88.21
70046;BME280;57385;41.832;23.494;2022-12-10T06:25:13;90445.38;;;9.34;88.08
70046;BME280;57385;41.832;23.494;2022-12-10T06:26:34;90451.56;;;9.38;87.66
70046;BME280;57385;41.832;23.494;2022-12-10T06:27:55;90443.66;;;9.40;87.77
70046;BME280;57385;41.832;23.494;2022-12-10T06:29:16;90449.09;;;9.43;87.88
70046;BME280;57385;41.832;23.494;2022-12-10T06:30:37;90440.88;;;9.41;87.75
70046;BME280;57385;41.832;23.494;2022-12-10T06:31:58;90450.63;;;9.44;88.20
70046;BME280;57385;41.832;23.494;2022-12-10T06:33:19;90450.09;;;9.42;87.75
70046;BME280;57385;41.832;23.494;2022-12-10T06:34:40;90457.00;;;9.42;88.12
70046;BME280;57385;41.832;23.494;2022-12-10T06:36:07;90459.88;;;9.45;87.90
70046;BME280;57385;41.832;23.494;2022-12-10T06:37:30;90455.22;;;9.42;88.01
70046;BME280;57385;41.832;23.494;2022-12-10T06:38:51;90451.66;;;9.43;87.84
70046;BME280;57385;41.832;23.494;2022-12-10T06:40:12;90453.19;;;9.44;88.39
70046;BME280;57385;41.832;23.494;2022-12-10T06:41:34;90452.34;;;9.39;88.61
70046;BME280;57385;41.832;23.494;2022-12-10T06:42:55;90443.13;;;9.38;88.43
70046;BME280;57385;41.832;23.494;2022-12-10T06:44:16;90442.34;;;9.37;88.38
70046;BME280;57385;41.832;23.494;2022-12-10T06:45:41;90437.53;;;9.41;88.37
70046;BME280;57385;41.832;23.494;2022-12-10T06:47:02;90439.84;;;9.42;88.43
70046;BME280;57385;41.832;23.494;2022-12-10T06:48:23;90447.41;;;9.49;88.08
70046;BME280;57385;41.832;23.494;2022-12-10T06:49:44;90447.72;;;9.53;88.47
70046;BME280;57385;41.832;23.494;2022-12-10T06:51:06;90456.94;;;9.54;88.35
70046;BME280;57385;41.832;23.494;2022-12-10T06:52:28;90456.94;;;9.54;88.06
70046;BME280;57385;41.832;23.494;2022-12-10T06:53:49;90449.34;;;9.59;88.09
70046;BME280;57385;41.832;23.494;2022-12-10T06:55:10;90456.81;;;9.60;88.03
70046;BME280;57385;41.832;23.494;2022-12-10T06:56:31;90452.47;;;9.61;88.24
70046;BME280;57385;41.832;23.494;2022-12-10T06:57:53;90449.13;;;9.60;88.37
70046;BME280;57385;41.832;23.494;2022-12-10T06:59:14;90452.47;;;9.61;88.16
70046;BME280;57385;41.832;23.494;2022-12-10T07:00:36;90445.69;;;9.55;88.03
70046;BME280;57385;41.832;23.494;2022-12-10T07:01:57;90444.22;;;9.59;88.08
70046;BME280;57385;41.832;23.494;2022-12-10T07:03:18;90440.44;;;9.61;88.14
70046;BME280;57385;41.832;23.494;2022-12-10T07:04:39;90431.22;;;9.60;87.89
70046;BME280;57385;41.832;23.494;2022-12-10T07:06:01;90442.06;;;9.67;88.22
70046;BME280;57385;41.832;23.494;2022-12-10T07:07:22;90446.06;;;9.75;87.65
70046;BME280;57385;41.832;23.494;2022-12-10T07:08:44;90452.00;;;9.80;87.61
70046;BME280;57385;41.832;23.494;2022-12-10T07:10:05;90452.78;;;9.81;87.64
70046;BME280;57385;41.832;23.494;2022-12-10T07:11:27;90451.78;;;9.82;87.71
70046;BME280;57385;41.832;23.494;2022-12-10T07:12:48;90451.78;;;9.82;88.00
70046;BME280;57385;41.832;23.494;2022-12-10T07:14:15;90445.81;;;9.76;88.49
70046;BME280;57385;41.832;23.494;2022-12-10T07:15:36;90442.91;;;9.73;88.40
70046;BME280;57385;41.832;23.494;2022-12-10T07:16:57;90444.50;;;9.74;88.22
70046;BME280;57385;41.832;23.494;2022-12-10T07:18:19;90444.50;;;9.74;88.82
70046;BME280;57385;41.832;23.494;2022-12-10T07:19:41;90458.50;;;9.71;88.47
70046;BME280;57385;41.832;23.494;2022-12-10T07:21:02;90461.31;;;9.70;88.66
70046;BME280;57385;41.832;23.494;2022-12-10T07:22:33;90467.44;;;9.69;88.89
70046;BME280;57385;41.832;23.494;2022-12-10T07:23:57;90477.69;;;9.69;88.95
70046;BME280;57385;41.832;23.494;2022-12-10T07:25:19;90466.91;;;9.67;88.65
70046;BME280;57385;41.832;23.494;2022-12-10T07:26:41;90469.00;;;9.70;89.19
70046;BME280;57385;41.832;23.494;2022-12-10T07:28:04;90469.00;;;9.70;89.44
70046;BME280;57385;41.832;23.494;2022-12-10T07:29:25;90464.41;;;9.72;89.17
70046;BME280;57385;41.832;23.494;2022-12-10T07:30:47;90459.38;;;9.77;89.18
70046;BME280;57385;41.832;23.494;2022-12-10T07:32:08;90459.38;;;9.77;89.07
70046;BME280;57385;41.832;23.494;2022-12-10T07:33:29;90463.97;;;9.75;88.73
70046;BME280;57385;41.832;23.494;2022-12-10T07:34:50;90464.22;;;9.73;88.79
70046;BME280;57385;41.832;23.494;2022-12-10T07:36:12;90464.81;;;9.80;88.35
70046;BME280;57385;41.832;23.494;2022-12-10T07:37:35;90473.03;;;9.83;88.78
70046;BME280;57385;41.832;23.494;2022-12-10T07:38:56;90473.16;;;9.88;88.83
70046;BME280;57385;41.832;23.494;2022-12-10T07:40:17;90472.38;;;9.87;88.43